Airfield :
LOGIN :

Register | Disclaimer

   EN    FR    IT 

 










Legend :    VFR   Marginal VFR   IFR   Intensive IFR   Very Intensive IFR
Visi :
Ceiling :
>= 8 km
>= 3000ft
5 to 8 km
1000 to 3000 ft
1500m to 5 km
500 to 1000 ft
800 to 1500m
200 to 500 ft
< 800m
< 200 ft
Symbols :   Thunderstorms  Fog  Heavy snow  Heavy precipitations  Wind > 20 kt
SIGMETs :     Misc.  Thunderstorms  Icing  Turbulence  Mountain Waves  Volcanic Ashes







- Airport Elevation : 158 ft
- IATA code : QAR


EHDL - Deelen Airbase

EXPIRED METARs :
  • 241425Z AUTO 23011KT 190V270 5000 -DZ FEW006 SCT009 BKN011 17/16 Q1014 REDZ GRN
  • 241355Z AUTO 23010KT 180V280 4100 DZ FEW004 BKN006 BKN008 17/16 Q1014 YLO
  • 241325Z AUTO 23011KT 140V260 4000 +DZ FEW004 SCT005 BKN007 17/16 Q1014 YLO
  • 241255Z AUTO 23013KT 180V260 2400 +DZ FEW004 BKN005 BKN007 17/16 Q1014 YLO
  • 241225Z AUTO 23013KT 160V270 2300 +DZ FEW006 SCT007 BKN009 17/16 Q1014 YLO
  • 241155Z AUTO 23010KT 190V270 4000 DZ FEW005 SCT007 BKN008 17/16 Q1014 GRN

Expired Forecast.
No reported NOTAMs for that airfield.



MET'MAP, your aeronautical weather chart ! - Copyright ORBIFLY December 2007 - Disclaimer

ORBIFLY MET'MAP TEAM :

Programming & Development : Alexandra Zaïnal
Concept & Development : Baudouin d'Aumeries
Co-Development & Prog : Marc-Olivier Méhu
Technical & hardware support : Manuel Goepfert

Contact : metmap@orbifly.com




SOURCES & CREDITS :

   NOAA